LSPD weather

Public forecast

Using degrees Celsius for public forecast. Weather courtesy of forecast.io.

Closest aviation weather report (METAR) to Dittingen Airport

Closest report is EuroAirport Basel-Mulhouse-Freiburg Airport, 9.2 nm (17.1 km) N. Retrieved 2020/08/09 16:30 UTC (0 seconds ago):

LFSB 091630Z 11005KT 070V170 CAVOK 33/12 Q1015 NOSIG

Closest aviation forecast (TAF) to Dittingen Airport

Closest forecast is EuroAirport Basel-Mulhouse-Freiburg Airport, 9.2 nm (17.1 km) N. Retrieved 2020/08/09 12:21 UTC (4 hours ago):

TAF LFSB 091101Z 0912/1012 11008KT CAVOK BECMG 0919/0921 VRB03KT